createdAt,value
2023-12-12T00:00:00.421Z,99.67
2023-12-12T00:05:00.315Z,99.79
2023-12-12T00:10:00.477Z,100.00
2023-12-12T00:15:00.366Z,99.71
2023-12-12T00:20:00.681Z,99.82
2023-12-12T00:25:00.444Z,99.96
2023-12-12T00:30:00.359Z,100.00
2023-12-12T00:35:00.380Z,100.00
2023-12-12T00:40:00.494Z,100.00
2023-12-12T00:45:00.338Z,100.00
2023-12-12T00:50:01.461Z,100.00
2023-12-12T00:55:01.132Z,99.92
2023-12-12T01:00:00.378Z,100.00
2023-12-12T01:05:00.650Z,99.96
2023-12-12T01:10:00.404Z,99.81
2023-12-12T01:15:00.493Z,100.00
2023-12-12T01:20:00.533Z,99.92
2023-12-12T01:25:00.353Z,100.00
2023-12-12T01:30:00.520Z,100.00
2023-12-12T01:35:00.469Z,100.00
2023-12-12T01:40:00.606Z,100.00
2023-12-12T01:45:00.414Z,100.00
2023-12-12T01:50:00.538Z,100.00
2023-12-12T01:55:00.691Z,100.00
2023-12-12T02:00:00.396Z,100.00
2023-12-12T02:05:00.832Z,100.00
2023-12-12T02:10:00.410Z,100.00
2023-12-12T02:15:00.347Z,100.00
2023-12-12T02:20:00.848Z,100.00
2023-12-12T02:25:00.606Z,100.00
2023-12-12T02:30:00.872Z,100.00
2023-12-12T02:35:01.508Z,100.00
2023-12-12T02:40:00.567Z,100.00
2023-12-12T02:45:00.558Z,100.00
2023-12-12T02:50:00.563Z,100.00
2023-12-12T02:55:00.489Z,100.00
2023-12-12T03:00:00.471Z,100.00
2023-12-12T03:05:00.636Z,100.00
2023-12-12T03:10:00.578Z,100.00
2023-12-12T03:15:00.439Z,100.00
2023-12-12T03:20:00.559Z,100.00
2023-12-12T03:25:00.426Z,100.00
2023-12-12T03:30:00.347Z,100.00
2023-12-12T03:35:00.302Z,100.00
2023-12-12T03:40:00.395Z,100.00
2023-12-12T03:45:00.345Z,100.00
2023-12-12T03:50:00.502Z,100.00
2023-12-12T03:55:00.364Z,100.00
2023-12-12T04:00:00.506Z,100.00
2023-12-12T04:05:00.360Z,100.00
2023-12-12T04:10:00.311Z,100.00
2023-12-12T04:15:00.473Z,100.00
2023-12-12T04:20:00.509Z,100.00
2023-12-12T04:25:00.365Z,100.00
2023-12-12T04:30:00.339Z,100.00
2023-12-12T04:35:00.817Z,100.00
2023-12-12T04:40:00.619Z,100.00
2023-12-12T04:45:00.432Z,100.00
2023-12-12T04:50:00.470Z,100.00
2023-12-12T04:55:00.346Z,100.00
2023-12-12T05:00:00.314Z,100.00
2023-12-12T05:05:00.322Z,100.00
2023-12-12T05:10:00.493Z,100.00
2023-12-12T05:15:00.390Z,100.00
2023-12-12T05:20:00.619Z,100.00
2023-12-12T05:25:00.638Z,100.00
2023-12-12T05:30:00.363Z,100.00
2023-12-12T05:35:00.325Z,100.00
2023-12-12T05:40:00.467Z,100.00
2023-12-12T05:45:00.368Z,100.00
2023-12-12T05:50:00.474Z,100.00
2023-12-12T05:55:00.356Z,100.00
2023-12-12T06:00:01.319Z,100.00
2023-12-12T06:05:00.401Z,100.00
2023-12-12T06:10:00.501Z,100.00
2023-12-12T06:15:00.751Z,100.00
2023-12-12T06:20:00.396Z,100.00
2023-12-12T06:25:00.421Z,100.00
2023-12-12T06:30:00.328Z,100.00
2023-12-12T06:35:00.513Z,100.00
2023-12-12T06:40:00.428Z,100.00
2023-12-12T06:45:00.286Z,100.00
2023-12-12T06:50:00.486Z,100.00
2023-12-12T06:55:00.729Z,100.00
2023-12-12T07:00:00.311Z,100.00
2023-12-12T07:05:00.365Z,100.00
2023-12-12T07:10:00.787Z,100.00
2023-12-12T07:15:00.362Z,100.00
2023-12-12T07:20:00.380Z,100.00
2023-12-12T07:25:00.328Z,100.00
2023-12-12T07:30:00.333Z,100.00
2023-12-12T07:35:00.388Z,100.00
2023-12-12T07:40:00.539Z,100.00
2023-12-12T07:45:00.484Z,100.00
2023-12-12T07:50:00.365Z,100.00
2023-12-12T07:55:00.355Z,100.00
2023-12-12T08:00:00.327Z,100.00
2023-12-12T08:05:00.464Z,100.00
2023-12-12T08:10:00.435Z,100.00
2023-12-12T08:15:00.294Z,100.00
2023-12-12T08:20:00.726Z,100.00
2023-12-12T08:25:00.326Z,100.00
2023-12-12T08:30:02.290Z,100.00
2023-12-12T08:35:00.379Z,100.00
2023-12-12T08:40:00.366Z,100.00
2023-12-12T08:45:00.356Z,100.00
2023-12-12T08:50:00.640Z,100.00
2023-12-12T08:55:00.398Z,100.00
2023-12-12T09:00:02.085Z,100.00
2023-12-12T09:05:00.360Z,100.00
2023-12-12T09:10:02.635Z,100.00
2023-12-12T09:15:02.110Z,100.00
2023-12-12T09:20:00.559Z,100.00
2023-12-12T09:25:00.406Z,100.00
2023-12-12T09:30:00.374Z,100.00
2023-12-12T09:35:00.438Z,100.00
2023-12-12T09:40:02.239Z,100.00
2023-12-12T09:45:02.775Z,100.00
2023-12-12T10:15:00.389Z,99.46
2023-12-12T10:20:01.537Z,98.85
2023-12-12T10:25:09.233Z,99.21
2023-12-12T10:30:02.918Z,97.09
2023-12-12T10:35:00.354Z,98.00
2023-12-12T10:40:21.059Z,97.39
2023-12-12T10:45:02.557Z,93.40
2023-12-12T10:50:02.807Z,92.82
2023-12-12T10:55:01.679Z,94.36
2023-12-12T11:00:05.220Z,92.79
2023-12-12T11:05:01.185Z,92.37
2023-12-12T11:10:00.749Z,92.17
2023-12-12T11:15:01.562Z,91.00
2023-12-12T11:20:17.436Z,91.47
2023-12-12T11:25:03.321Z,90.72
2023-12-12T11:30:00.343Z,90.72
2023-12-12T11:35:03.590Z,90.62
2023-12-12T11:40:00.437Z,90.55
2023-12-12T11:45:00.597Z,90.64
2023-12-12T11:50:16.022Z,85.71
2023-12-12T11:55:00.446Z,84.24
2023-12-12T12:00:02.069Z,85.48
2023-12-12T12:05:00.438Z,87.44
2023-12-12T12:10:00.337Z,89.00
2023-12-12T12:15:02.247Z,88.45
2023-12-12T12:20:00.630Z,89.06
2023-12-12T12:25:00.442Z,89.71
2023-12-12T12:30:02.917Z,91.74
2023-12-12T12:35:09.796Z,94.80
2023-12-12T12:40:02.383Z,96.02
2023-12-12T12:45:01.610Z,97.56
2023-12-12T12:50:00.767Z,98.71
2023-12-12T12:55:00.378Z,98.86
2023-12-12T13:00:00.350Z,99.44
2023-12-12T13:05:00.317Z,100.00
2023-12-12T13:10:00.460Z,100.00
2023-12-12T13:15:00.307Z,100.00
2023-12-12T13:20:01.701Z,100.00
2023-12-12T13:25:00.385Z,100.00
2023-12-12T13:30:00.308Z,100.00
2023-12-12T13:35:00.524Z,100.00
2023-12-12T13:40:00.472Z,100.00
2023-12-12T13:45:00.347Z,100.00
2023-12-12T13:50:00.787Z,100.00
2023-12-12T13:55:00.480Z,100.00
2023-12-12T14:00:00.337Z,100.00
2023-12-12T14:05:00.890Z,100.00
2023-12-12T14:10:00.574Z,100.00
2023-12-12T14:15:00.397Z,100.00
2023-12-12T14:20:00.381Z,100.00
2023-12-12T14:25:01.088Z,100.00
2023-12-12T14:30:00.315Z,100.00
2023-12-12T14:35:00.344Z,100.00
2023-12-12T14:40:00.373Z,100.00
2023-12-12T14:45:00.292Z,100.00
2023-12-12T14:50:01.046Z,100.00
2023-12-12T14:55:00.370Z,100.00
2023-12-12T15:00:09.428Z,100.00
2023-12-12T15:05:00.351Z,100.00
2023-12-12T15:10:00.578Z,100.00
2023-12-12T15:15:00.696Z,100.00
2023-12-12T15:20:00.709Z,100.00
2023-12-12T15:25:00.348Z,100.00
2023-12-12T15:30:00.294Z,100.00
2023-12-12T15:35:00.582Z,100.00
2023-12-12T15:40:00.413Z,100.00
2023-12-12T15:45:00.299Z,100.00
2023-12-12T15:50:01.004Z,100.00
2023-12-12T15:55:00.409Z,100.00
2023-12-12T16:00:00.376Z,100.00
2023-12-12T16:05:00.682Z,100.00
2023-12-12T16:10:00.403Z,100.00
2023-12-12T16:15:02.490Z,100.00
2023-12-12T16:20:02.426Z,100.00
2023-12-12T16:25:00.402Z,100.00
2023-12-12T16:30:00.346Z,100.00
2023-12-12T16:35:00.456Z,100.00
2023-12-12T16:40:00.444Z,100.00
2023-12-12T16:45:00.339Z,100.00
2023-12-12T16:50:00.332Z,100.00
2023-12-12T16:55:00.359Z,100.00
2023-12-12T17:00:00.300Z,100.00
2023-12-12T17:05:00.498Z,100.00
2023-12-12T17:10:00.616Z,100.00
2023-12-12T17:15:00.332Z,100.00
2023-12-12T17:20:00.800Z,100.00
2023-12-12T17:25:00.372Z,100.00
2023-12-12T17:30:00.428Z,100.00
2023-12-12T17:35:00.396Z,100.00
2023-12-12T17:40:00.417Z,100.00
2023-12-12T17:50:00.524Z,100.00
2023-12-12T17:55:00.315Z,100.00
2023-12-12T18:00:00.722Z,100.00
2023-12-12T18:05:00.539Z,100.00
2023-12-12T18:10:00.391Z,100.00
2023-12-12T18:15:00.356Z,100.00
2023-12-12T18:20:00.484Z,100.00
2023-12-12T18:25:00.290Z,100.00
2023-12-12T18:30:00.365Z,100.00
2023-12-12T18:35:00.562Z,100.00
2023-12-12T18:40:00.557Z,100.00
2023-12-12T18:45:00.349Z,100.00
2023-12-12T18:50:00.349Z,100.00
2023-12-12T18:55:00.359Z,100.00
2023-12-12T19:00:02.197Z,100.00
2023-12-12T19:05:00.471Z,100.00
2023-12-12T19:10:00.353Z,100.00
2023-12-12T19:15:00.406Z,100.00
2023-12-12T19:20:00.408Z,100.00
2023-12-12T19:25:00.318Z,100.00
2023-12-12T19:30:00.634Z,100.00
2023-12-12T19:35:00.330Z,100.00
2023-12-12T19:40:00.450Z,100.00
2023-12-12T19:45:01.608Z,100.00
2023-12-12T19:50:03.540Z,100.00
2023-12-12T19:55:00.296Z,100.00
2023-12-12T20:00:00.312Z,100.00
2023-12-12T20:05:00.380Z,100.00
2023-12-12T20:10:00.324Z,100.00
2023-12-12T20:15:00.338Z,100.00
2023-12-12T20:20:00.374Z,100.00
2023-12-12T20:25:00.353Z,100.00
2023-12-12T20:30:00.580Z,100.00
2023-12-12T20:35:03.063Z,100.00
2023-12-12T20:40:00.313Z,100.00
2023-12-12T20:45:00.375Z,100.00
2023-12-12T20:50:01.039Z,100.00
2023-12-12T20:55:00.316Z,100.00
2023-12-12T21:00:00.343Z,100.00
2023-12-12T21:05:00.461Z,100.00
2023-12-12T21:10:00.364Z,100.00
2023-12-12T21:15:00.423Z,100.00
2023-12-12T21:20:00.405Z,100.00
2023-12-12T21:25:01.143Z,100.00
2023-12-12T21:30:00.338Z,100.00
2023-12-12T21:35:00.478Z,100.00
2023-12-12T21:40:00.336Z,100.00
2023-12-12T21:45:00.310Z,100.00
2023-12-12T21:50:00.486Z,100.00
2023-12-12T21:55:00.409Z,100.00
2023-12-12T22:00:00.451Z,100.00
2023-12-12T22:05:00.448Z,100.00
2023-12-12T22:10:00.333Z,100.00
2023-12-12T22:15:00.312Z,100.00
2023-12-12T22:20:06.181Z,100.00
2023-12-12T22:25:00.352Z,100.00
2023-12-12T22:30:00.289Z,100.00
2023-12-12T22:35:00.427Z,100.00
2023-12-12T22:40:00.284Z,100.00
2023-12-12T22:45:00.337Z,100.00
2023-12-12T22:50:00.427Z,100.00
2023-12-12T22:55:00.297Z,100.00
2023-12-12T23:00:00.406Z,100.00
2023-12-12T23:05:00.678Z,100.00
2023-12-12T23:10:00.286Z,100.00
2023-12-12T23:15:00.320Z,100.00
2023-12-12T23:20:00.505Z,100.00
2023-12-12T23:25:01.526Z,100.00
2023-12-12T23:30:00.337Z,100.00
2023-12-12T23:35:00.361Z,100.00
2023-12-12T23:40:00.385Z,100.00
2023-12-12T23:45:00.406Z,100.00
2023-12-12T23:50:00.688Z,100.00
2023-12-12T23:55:00.309Z,100.00
